sensor_id;sensor_type;location;lat;lon;timestamp;temperature;humidity
1578;DHT22;57623;53.608;10.004;2023-06-26T00:01:28;21.80;99.90
1578;DHT22;57623;53.608;10.004;2023-06-26T00:03:58;21.70;99.90
1578;DHT22;57623;53.608;10.004;2023-06-26T00:06:26;21.70;99.90
1578;DHT22;57623;53.608;10.004;2023-06-26T00:08:56;21.70;99.90
1578;DHT22;57623;53.608;10.004;2023-06-26T00:11:25;21.70;99.90
1578;DHT22;57623;53.608;10.004;2023-06-26T00:13:54;21.70;99.90
1578;DHT22;57623;53.608;10.004;2023-06-26T00:16:22;21.70;99.90
1578;DHT22;57623;53.608;10.004;2023-06-26T00:18:50;21.60;99.90
1578;DHT22;57623;53.608;10.004;2023-06-26T00:21:18;21.60;99.90
1578;DHT22;57623;53.608;10.004;2023-06-26T00:23:46;21.60;99.90
1578;DHT22;57623;53.608;10.004;2023-06-26T00:26:16;21.60;99.90
1578;DHT22;57623;53.608;10.004;2023-06-26T00:28:44;21.60;99.90
1578;DHT22;57623;53.608;10.004;2023-06-26T00:31:12;21.50;99.90
1578;DHT22;57623;53.608;10.004;2023-06-26T00:33:39;21.50;99.90
1578;DHT22;57623;53.608;10.004;2023-06-26T00:36:07;21.50;99.90
1578;DHT22;57623;53.608;10.004;2023-06-26T00:38:35;21.40;99.90
1578;DHT22;57623;53.608;10.004;2023-06-26T00:41:03;21.40;99.90
1578;DHT22;57623;53.608;10.004;2023-06-26T00:43:33;21.40;99.90
1578;DHT22;57623;53.608;10.004;2023-06-26T00:46:01;21.40;99.90
1578;DHT22;57623;53.608;10.004;2023-06-26T00:48:29;21.30;99.90
1578;DHT22;57623;53.608;10.004;2023-06-26T00:50:57;21.30;99.90
1578;DHT22;57623;53.608;10.004;2023-06-26T00:53:25;21.30;99.90
1578;DHT22;57623;53.608;10.004;2023-06-26T00:55:54;21.30;99.90
1578;DHT22;57623;53.608;10.004;2023-06-26T00:58:24;21.30;99.90
1578;DHT22;57623;53.608;10.004;2023-06-26T01:00:53;21.30;99.90
1578;DHT22;57623;53.608;10.004;2023-06-26T01:03:23;21.30;99.90
1578;DHT22;57623;53.608;10.004;2023-06-26T01:05:52;21.20;99.90
1578;DHT22;57623;53.608;10.004;2023-06-26T01:08:20;21.20;99.90
1578;DHT22;57623;53.608;10.004;2023-06-26T01:10:49;21.20;99.90
1578;DHT22;57623;53.608;10.004;2023-06-26T01:13:17;21.20;99.90
1578;DHT22;57623;53.608;10.004;2023-06-26T01:15:46;21.20;99.90
1578;DHT22;57623;53.608;10.004;2023-06-26T01:18:15;21.20;99.90
1578;DHT22;57623;53.608;10.004;2023-06-26T01:20:44;21.20;99.90
1578;DHT22;57623;53.608;10.004;2023-06-26T01:23:16;21.10;99.90
1578;DHT22;57623;53.608;10.004;2023-06-26T01:25:56;21.10;99.90
1578;DHT22;57623;53.608;10.004;2023-06-26T01:28:30;21.10;99.90
1578;DHT22;57623;53.608;10.004;2023-06-26T01:30:59;21.10;99.90
1578;DHT22;57623;53.608;10.004;2023-06-26T01:33:28;21.00;99.90
1578;DHT22;57623;53.608;10.004;2023-06-26T01:35:56;21.00;99.90
1578;DHT22;57623;53.608;10.004;2023-06-26T01:38:24;21.00;99.90
1578;DHT22;57623;53.608;10.004;2023-06-26T01:40:53;21.00;99.90
1578;DHT22;57623;53.608;10.004;2023-06-26T01:43:25;20.90;99.90
1578;DHT22;57623;53.608;10.004;2023-06-26T01:46:01;20.90;99.90
1578;DHT22;57623;53.608;10.004;2023-06-26T01:48:34;20.90;99.90
1578;DHT22;57623;53.608;10.004;2023-06-26T01:51:02;20.90;99.90
1578;DHT22;57623;53.608;10.004;2023-06-26T01:53:35;20.90;99.90
1578;DHT22;57623;53.608;10.004;2023-06-26T01:56:07;20.90;99.90
1578;DHT22;57623;53.608;10.004;2023-06-26T01:58:37;20.80;99.90
1578;DHT22;57623;53.608;10.004;2023-06-26T02:01:09;20.80;99.90
1578;DHT22;57623;53.608;10.004;2023-06-26T02:03:37;20.80;99.90
1578;DHT22;57623;53.608;10.004;2023-06-26T02:06:05;20.80;99.90
1578;DHT22;57623;53.608;10.004;2023-06-26T02:08:33;20.80;99.90
1578;DHT22;57623;53.608;10.004;2023-06-26T02:11:01;20.80;99.90
1578;DHT22;57623;53.608;10.004;2023-06-26T02:13:29;20.80;99.90
1578;DHT22;57623;53.608;10.004;2023-06-26T02:15:57;20.80;99.90
1578;DHT22;57623;53.608;10.004;2023-06-26T02:18:26;20.80;99.90
1578;DHT22;57623;53.608;10.004;2023-06-26T02:20:54;20.70;99.90
1578;DHT22;57623;53.608;10.004;2023-06-26T02:23:22;20.70;99.90
1578;DHT22;57623;53.608;10.004;2023-06-26T02:25:50;20.70;99.90
1578;DHT22;57623;53.608;10.004;2023-06-26T02:28:18;20.70;99.90
1578;DHT22;57623;53.608;10.004;2023-06-26T02:30:46;20.70;99.90
1578;DHT22;57623;53.608;10.004;2023-06-26T02:33:14;20.70;99.90
1578;DHT22;57623;53.608;10.004;2023-06-26T02:35:43;20.60;99.90
1578;DHT22;57623;53.608;10.004;2023-06-26T02:38:11;20.60;99.90
1578;DHT22;57623;53.608;10.004;2023-06-26T02:40:39;20.60;99.90
1578;DHT22;57623;53.608;10.004;2023-06-26T02:43:08;20.60;99.90
1578;DHT22;57623;53.608;10.004;2023-06-26T02:45:35;20.50;99.90
1578;DHT22;57623;53.608;10.004;2023-06-26T02:48:04;20.50;99.90
1578;DHT22;57623;53.608;10.004;2023-06-26T02:50:32;20.50;99.90
1578;DHT22;57623;53.608;10.004;2023-06-26T02:53:01;20.50;99.90
1578;DHT22;57623;53.608;10.004;2023-06-26T02:55:29;20.50;99.90
1578;DHT22;57623;53.608;10.004;2023-06-26T02:57:57;20.50;99.90
1578;DHT22;57623;53.608;10.004;2023-06-26T03:00:25;20.50;99.90
1578;DHT22;57623;53.608;10.004;2023-06-26T03:02:56;20.50;99.90
1578;DHT22;57623;53.608;10.004;2023-06-26T03:05:24;20.50;99.90
1578;DHT22;57623;53.608;10.004;2023-06-26T03:07:52;20.50;99.90
1578;DHT22;57623;53.608;10.004;2023-06-26T03:10:21;20.50;99.90
1578;DHT22;57623;53.608;10.004;2023-06-26T03:12:49;20.40;99.90
1578;DHT22;57623;53.608;10.004;2023-06-26T03:15:17;20.50;99.90
1578;DHT22;57623;53.608;10.004;2023-06-26T03:17:46;20.50;99.90
1578;DHT22;57623;53.608;10.004;2023-06-26T03:20:14;20.50;99.90
1578;DHT22;57623;53.608;10.004;2023-06-26T03:22:42;20.50;99.90
1578;DHT22;57623;53.608;10.004;2023-06-26T03:25:10;20.40;99.90
1578;DHT22;57623;53.608;10.004;2023-06-26T03:27:39;20.40;99.90
1578;DHT22;57623;53.608;10.004;2023-06-26T03:30:08;20.40;99.90
1578;DHT22;57623;53.608;10.004;2023-06-26T03:32:36;20.40;99.90
1578;DHT22;57623;53.608;10.004;2023-06-26T03:35:05;20.40;99.90
1578;DHT22;57623;53.608;10.004;2023-06-26T03:37:33;20.40;99.90
1578;DHT22;57623;53.608;10.004;2023-06-26T03:40:01;20.40;99.90
1578;DHT22;57623;53.608;10.004;2023-06-26T03:42:31;20.40;99.90
1578;DHT22;57623;53.608;10.004;2023-06-26T03:45:00;20.50;99.90
1578;DHT22;57623;53.608;10.004;2023-06-26T03:47:28;20.50;99.90
1578;DHT22;57623;53.608;10.004;2023-06-26T03:49:56;20.50;99.90
1578;DHT22;57623;53.608;10.004;2023-06-26T03:52:24;20.50;99.90
1578;DHT22;57623;53.608;10.004;2023-06-26T03:54:52;20.40;99.90
1578;DHT22;57623;53.608;10.004;2023-06-26T03:57:20;20.40;99.90
1578;DHT22;57623;53.608;10.004;2023-06-26T03:59:48;20.50;99.90
1578;DHT22;57623;53.608;10.004;2023-06-26T04:02:18;20.50;99.90
1578;DHT22;57623;53.608;10.004;2023-06-26T04:04:46;20.50;99.90
1578;DHT22;57623;53.608;10.004;2023-06-26T04:07:14;20.50;99.90
1578;DHT22;57623;53.608;10.004;2023-06-26T04:09:42;20.50;99.90
1578;DHT22;57623;53.608;10.004;2023-06-26T04:12:10;20.50;99.90
1578;DHT22;57623;53.608;10.004;2023-06-26T04:14:38;20.50;99.90
1578;DHT22;57623;53.608;10.004;2023-06-26T04:17:06;20.50;99.90
1578;DHT22;57623;53.608;10.004;2023-06-26T04:19:35;20.50;99.90
1578;DHT22;57623;53.608;10.004;2023-06-26T04:22:03;20.60;99.90
1578;DHT22;57623;53.608;10.004;2023-06-26T04:24:31;20.60;99.90
1578;DHT22;57623;53.608;10.004;2023-06-26T04:26:59;20.70;99.90
1578;DHT22;57623;53.608;10.004;2023-06-26T04:29:27;20.70;99.90
1578;DHT22;57623;53.608;10.004;2023-06-26T04:31:55;20.70;99.90
1578;DHT22;57623;53.608;10.004;2023-06-26T04:34:25;20.70;99.90
1578;DHT22;57623;53.608;10.004;2023-06-26T04:36:54;20.70;99.90
1578;DHT22;57623;53.608;10.004;2023-06-26T04:39:22;20.70;99.90
1578;DHT22;57623;53.608;10.004;2023-06-26T04:41:51;20.80;99.90
1578;DHT22;57623;53.608;10.004;2023-06-26T04:44:19;20.80;99.90
1578;DHT22;57623;53.608;10.004;2023-06-26T04:46:47;20.90;99.90
1578;DHT22;57623;53.608;10.004;2023-06-26T04:49:18;20.90;99.90
1578;DHT22;57623;53.608;10.004;2023-06-26T04:51:47;20.90;99.90
1578;DHT22;57623;53.608;10.004;2023-06-26T04:54:16;21.00;99.90
1578;DHT22;57623;53.608;10.004;2023-06-26T04:56:44;21.00;99.90
1578;DHT22;57623;53.608;10.004;2023-06-26T04:59:14;21.00;99.90
1578;DHT22;57623;53.608;10.004;2023-06-26T05:01:41;21.10;99.90
1578;DHT22;57623;53.608;10.004;2023-06-26T05:04:14;21.10;99.90
1578;DHT22;57623;53.608;10.004;2023-06-26T05:06:42;21.20;99.90
1578;DHT22;57623;53.608;10.004;2023-06-26T05:09:11;21.20;99.90
1578;DHT22;57623;53.608;10.004;2023-06-26T05:11:40;21.20;99.90
1578;DHT22;57623;53.608;10.004;2023-06-26T05:14:08;21.30;99.90
1578;DHT22;57623;53.608;10.004;2023-06-26T05:16:36;21.30;99.90
1578;DHT22;57623;53.608;10.004;2023-06-26T05:19:04;21.40;99.90
1578;DHT22;57623;53.608;10.004;2023-06-26T05:21:32;21.50;99.90
1578;DHT22;57623;53.608;10.004;2023-06-26T05:24:02;21.50;99.90
1578;DHT22;57623;53.608;10.004;2023-06-26T05:26:31;21.50;99.90
1578;DHT22;57623;53.608;10.004;2023-06-26T05:29:01;21.60;99.90
1578;DHT22;57623;53.608;10.004;2023-06-26T05:31:31;21.60;99.90
1578;DHT22;57623;53.608;10.004;2023-06-26T05:34:02;21.60;99.90
1578;DHT22;57623;53.608;10.004;2023-06-26T05:36:31;21.70;99.90
1578;DHT22;57623;53.608;10.004;2023-06-26T05:39:01;21.70;99.90
1578;DHT22;57623;53.608;10.004;2023-06-26T05:41:30;21.80;99.90
1578;DHT22;57623;53.608;10.004;2023-06-26T05:43:58;21.90;99.90
1578;DHT22;57623;53.608;10.004;2023-06-26T05:46:27;21.90;99.90
1578;DHT22;57623;53.608;10.004;2023-06-26T05:48:55;22.00;99.90
1578;DHT22;57623;53.608;10.004;2023-06-26T05:51:24;22.00;99.90
1578;DHT22;57623;53.608;10.004;2023-06-26T05:53:52;22.10;99.90
1578;DHT22;57623;53.608;10.004;2023-06-26T05:56:21;22.20;99.90
1578;DHT22;57623;53.608;10.004;2023-06-26T05:58:50;22.30;99.90
1578;DHT22;57623;53.608;10.004;2023-06-26T06:01:18;22.30;99.90
1578;DHT22;57623;53.608;10.004;2023-06-26T06:03:48;22.40;99.90
1578;DHT22;57623;53.608;10.004;2023-06-26T06:06:16;22.50;99.90
1578;DHT22;57623;53.608;10.004;2023-06-26T06:08:44;22.50;99.90
1578;DHT22;57623;53.608;10.004;2023-06-26T06:11:15;22.60;99.90
1578;DHT22;57623;53.608;10.004;2023-06-26T06:13:43;22.60;99.90
1578;DHT22;57623;53.608;10.004;2023-06-26T06:16:11;22.70;99.90
1578;DHT22;57623;53.608;10.004;2023-06-26T06:18:39;22.70;99.90
1578;DHT22;57623;53.608;10.004;2023-06-26T06:21:08;22.80;99.90
1578;DHT22;57623;53.608;10.004;2023-06-26T06:23:36;22.90;99.90
1578;DHT22;57623;53.608;10.004;2023-06-26T06:26:04;22.90;99.90
1578;DHT22;57623;53.608;10.004;2023-06-26T06:28:32;23.00;99.90
1578;DHT22;57623;53.608;10.004;2023-06-26T06:31:00;23.00;99.90
1578;DHT22;57623;53.608;10.004;2023-06-26T06:33:29;23.10;99.90
1578;DHT22;57623;53.608;10.004;2023-06-26T06:35:57;23.20;99.90
1578;DHT22;57623;53.608;10.004;2023-06-26T06:38:27;23.20;99.90
1578;DHT22;57623;53.608;10.004;2023-06-26T06:40:55;23.30;99.90
1578;DHT22;57623;53.608;10.004;2023-06-26T06:43:23;23.30;99.90
1578;DHT22;57623;53.608;10.004;2023-06-26T06:45:51;23.30;99.90
1578;DHT22;57623;53.608;10.004;2023-06-26T06:48:19;23.30;99.90
1578;DHT22;57623;53.608;10.004;2023-06-26T06:50:47;23.40;99.90
1578;DHT22;57623;53.608;10.004;2023-06-26T06:53:15;23.50;99.90
1578;DHT22;57623;53.608;10.004;2023-06-26T06:55:44;23.50;99.90
1578;DHT22;57623;53.608;10.004;2023-06-26T06:58:12;23.60;99.90
1578;DHT22;57623;53.608;10.004;2023-06-26T07:00:40;23.60;99.90
1578;DHT22;57623;53.608;10.004;2023-06-26T07:03:08;23.70;99.90
1578;DHT22;57623;53.608;10.004;2023-06-26T07:05:37;23.80;99.90
1578;DHT22;57623;53.608;10.004;2023-06-26T07:08:05;23.80;99.90
1578;DHT22;57623;53.608;10.004;2023-06-26T07:10:33;23.90;99.90
1578;DHT22;57623;53.608;10.004;2023-06-26T07:13:02;24.00;99.90
1578;DHT22;57623;53.608;10.004;2023-06-26T07:15:31;24.00;99.90
1578;DHT22;57623;53.608;10.004;2023-06-26T07:17:59;24.10;99.90
1578;DHT22;57623;53.608;10.004;2023-06-26T07:20:27;24.10;99.90
1578;DHT22;57623;53.608;10.004;2023-06-26T07:22:55;24.20;99.90
1578;DHT22;57623;53.608;10.004;2023-06-26T07:25:23;24.20;99.90
1578;DHT22;57623;53.608;10.004;2023-06-26T07:27:51;24.30;99.90
1578;DHT22;57623;53.608;10.004;2023-06-26T07:30:20;24.40;99.90
1578;DHT22;57623;53.608;10.004;2023-06-26T07:32:48;24.40;99.90
1578;DHT22;57623;53.608;10.004;2023-06-26T07:35:16;24.50;99.90
1578;DHT22;57623;53.608;10.004;2023-06-26T07:37:44;24.60;99.90
1578;DHT22;57623;53.608;10.004;2023-06-26T07:40:12;24.70;99.90
1578;DHT22;57623;53.608;10.004;2023-06-26T07:42:40;24.70;99.90
1578;DHT22;57623;53.608;10.004;2023-06-26T07:45:09;24.80;99.90
1578;DHT22;57623;53.608;10.004;2023-06-26T07:47:40;24.90;99.90
1578;DHT22;57623;53.608;10.004;2023-06-26T07:50:09;24.90;99.90
1578;DHT22;57623;53.608;10.004;2023-06-26T07:52:37;25.00;99.90
1578;DHT22;57623;53.608;10.004;2023-06-26T07:55:05;25.10;99.90
1578;DHT22;57623;53.608;10.004;2023-06-26T07:57:33;25.20;99.90
1578;DHT22;57623;53.608;10.004;2023-06-26T08:00:02;25.30;99.90
1578;DHT22;57623;53.608;10.004;2023-06-26T08:02:30;25.40;99.90
1578;DHT22;57623;53.608;10.004;2023-06-26T08:05:00;25.40;99.90
1578;DHT22;57623;53.608;10.004;2023-06-26T08:07:28;25.50;99.90
1578;DHT22;57623;53.608;10.004;2023-06-26T08:09:56;25.50;99.90
1578;DHT22;57623;53.608;10.004;2023-06-26T08:12:24;25.50;99.90
1578;DHT22;57623;53.608;10.004;2023-06-26T08:14:52;25.50;99.90
1578;DHT22;57623;53.608;10.004;2023-06-26T08:17:20;25.60;99.90
1578;DHT22;57623;53.608;10.004;2023-06-26T08:19:48;25.70;99.90
1578;DHT22;57623;53.608;10.004;2023-06-26T08:22:17;25.80;99.90
1578;DHT22;57623;53.608;10.004;2023-06-26T08:24:45;25.80;99.90
1578;DHT22;57623;53.608;10.004;2023-06-26T08:27:13;25.80;99.90
1578;DHT22;57623;53.608;10.004;2023-06-26T08:29:41;25.90;99.90
1578;DHT22;57623;53.608;10.004;2023-06-26T08:32:09;25.90;99.90
1578;DHT22;57623;53.608;10.004;2023-06-26T08:34:37;25.90;99.90
1578;DHT22;57623;53.608;10.004;2023-06-26T08:37:06;26.00;99.90
1578;DHT22;57623;53.608;10.004;2023-06-26T08:39:37;26.10;99.90
1578;DHT22;57623;53.608;10.004;2023-06-26T08:42:05;26.20;99.90
1578;DHT22;57623;53.608;10.004;2023-06-26T08:44:33;26.30;99.90
1578;DHT22;57623;53.608;10.004;2023-06-26T08:47:06;26.40;99.90
1578;DHT22;57623;53.608;10.004;2023-06-26T08:49:40;26.50;99.90
1578;DHT22;57623;53.608;10.004;2023-06-26T08:52:15;26.50;99.90
1578;DHT22;57623;53.608;10.004;2023-06-26T08:54:51;26.60;99.90
1578;DHT22;57623;53.608;10.004;2023-06-26T08:57:21;26.60;99.90
1578;DHT22;57623;53.608;10.004;2023-06-26T08:59:51;26.70;99.90
1578;DHT22;57623;53.608;10.004;2023-06-26T09:02:19;26.70;99.90
1578;DHT22;57623;53.608;10.004;2023-06-26T09:04:48;26.70;99.90
1578;DHT22;57623;53.608;10.004;2023-06-26T09:07:16;26.70;99.90
1578;DHT22;57623;53.608;10.004;2023-06-26T09:09:48;26.80;99.90
1578;DHT22;57623;53.608;10.004;2023-06-26T09:12:17;26.80;99.90
1578;DHT22;57623;53.608;10.004;2023-06-26T09:14:45;26.90;99.90
1578;DHT22;57623;53.608;10.004;2023-06-26T09:17:13;26.90;99.90
1578;DHT22;57623;53.608;10.004;2023-06-26T09:19:41;26.90;99.90
1578;DHT22;57623;53.608;10.004;2023-06-26T09:22:14;27.00;99.90
1578;DHT22;57623;53.608;10.004;2023-06-26T09:24:43;27.00;99.90
1578;DHT22;57623;53.608;10.004;2023-06-26T09:27:13;26.90;99.90
1578;DHT22;57623;53.608;10.004;2023-06-26T09:29:41;27.00;99.90
1578;DHT22;57623;53.608;10.004;2023-06-26T09:32:09;27.00;99.90
1578;DHT22;57623;53.608;10.004;2023-06-26T09:34:41;26.90;99.90
1578;DHT22;57623;53.608;10.004;2023-06-26T09:37:11;26.80;99.90
1578;DHT22;57623;53.608;10.004;2023-06-26T09:39:39;26.70;99.90
1578;DHT22;57623;53.608;10.004;2023-06-26T09:42:07;26.50;99.90
1578;DHT22;57623;53.608;10.004;2023-06-26T09:44:43;26.30;99.90
1578;DHT22;57623;53.608;10.004;2023-06-26T09:47:16;26.00;99.90
1578;DHT22;57623;53.608;10.004;2023-06-26T09:49:44;25.90;99.90
1578;DHT22;57623;53.608;10.004;2023-06-26T09:52:14;25.90;99.90
1578;DHT22;57623;53.608;10.004;2023-06-26T09:54:43;25.80;99.90
1578;DHT22;57623;53.608;10.004;2023-06-26T09:57:13;25.60;99.90
1578;DHT22;57623;53.608;10.004;2023-06-26T09:59:44;25.50;99.90
1578;DHT22;57623;53.608;10.004;2023-06-26T10:02:13;25.40;99.90
1578;DHT22;57623;53.608;10.004;2023-06-26T10:04:41;25.40;99.90
1578;DHT22;57623;53.608;10.004;2023-06-26T10:07:11;25.30;99.90
1578;DHT22;57623;53.608;10.004;2023-06-26T10:09:42;25.20;99.90
1578;DHT22;57623;53.608;10.004;2023-06-26T10:12:13;25.10;99.90
1578;DHT22;57623;53.608;10.004;2023-06-26T10:14:45;24.90;99.90
1578;DHT22;57623;53.608;10.004;2023-06-26T10:17:17;24.80;99.90
1578;DHT22;57623;53.608;10.004;2023-06-26T10:19:48;24.70;99.90
1578;DHT22;57623;53.608;10.004;2023-06-26T10:22:18;24.50;99.90
1578;DHT22;57623;53.608;10.004;2023-06-26T10:24:48;24.40;99.90
1578;DHT22;57623;53.608;10.004;2023-06-26T10:27:18;24.10;99.90
1578;DHT22;57623;53.608;10.004;2023-06-26T10:29:50;23.90;99.90
1578;DHT22;57623;53.608;10.004;2023-06-26T10:32:20;23.60;99.90
1578;DHT22;57623;53.608;10.004;2023-06-26T10:34:49;23.20;99.90
1578;DHT22;57623;53.608;10.004;2023-06-26T10:37:17;23.00;99.90
1578;DHT22;57623;53.608;10.004;2023-06-26T10:39:47;22.60;99.90
1578;DHT22;57623;53.608;10.004;2023-06-26T10:42:18;22.20;99.90
1578;DHT22;57623;53.608;10.004;2023-06-26T10:44:48;21.80;99.90
1578;DHT22;57623;53.608;10.004;2023-06-26T10:47:29;21.60;99.90
1578;DHT22;57623;53.608;10.004;2023-06-26T10:50:17;21.50;99.90
1578;DHT22;57623;53.608;10.004;2023-06-26T10:53:10;21.40;99.90
1578;DHT22;57623;53.608;10.004;2023-06-26T10:55:48;21.40;99.90
1578;DHT22;57623;53.608;10.004;2023-06-26T10:58:30;21.40;99.90
1578;DHT22;57623;53.608;10.004;2023-06-26T11:01:21;21.50;99.90
1578;DHT22;57623;53.608;10.004;2023-06-26T11:04:03;21.50;99.90
1578;DHT22;57623;53.608;10.004;2023-06-26T11:06:33;21.70;99.90
1578;DHT22;57623;53.608;10.004;2023-06-26T11:09:07;21.60;99.90
1578;DHT22;57623;53.608;10.004;2023-06-26T11:11:57;21.70;99.90
1578;DHT22;57623;53.608;10.004;2023-06-26T11:14:28;21.80;99.90
1578;DHT22;57623;53.608;10.004;2023-06-26T11:17:01;22.10;99.90
1578;DHT22;57623;53.608;10.004;2023-06-26T11:19:29;22.20;99.90
1578;DHT22;57623;53.608;10.004;2023-06-26T11:21:59;22.20;99.90
1578;DHT22;57623;53.608;10.004;2023-06-26T11:24:28;22.20;99.90
1578;DHT22;57623;53.608;10.004;2023-06-26T11:27:02;22.10;99.90
1578;DHT22;57623;53.608;10.004;2023-06-26T11:29:32;22.10;99.90
1578;DHT22;57623;53.608;10.004;2023-06-26T11:32:04;22.10;99.90
1578;DHT22;57623;53.608;10.004;2023-06-26T11:34:33;22.20;99.90
1578;DHT22;57623;53.608;10.004;2023-06-26T11:37:02;22.30;99.90
1578;DHT22;57623;53.608;10.004;2023-06-26T11:39:31;22.40;99.90
1578;DHT22;57623;53.608;10.004;2023-06-26T11:42:00;22.50;99.90
1578;DHT22;57623;53.608;10.004;2023-06-26T11:44:32;22.50;99.90
1578;DHT22;57623;53.608;10.004;2023-06-26T11:47:00;22.50;99.90
1578;DHT22;57623;53.608;10.004;2023-06-26T11:49:30;22.50;99.90
1578;DHT22;57623;53.608;10.004;2023-06-26T11:51:58;22.60;99.90
1578;DHT22;57623;53.608;10.004;2023-06-26T11:54:27;22.70;99.90
1578;DHT22;57623;53.608;10.004;2023-06-26T11:56:56;22.80;99.90
1578;DHT22;57623;53.608;10.004;2023-06-26T11:59:32;23.00;99.90
1578;DHT22;57623;53.608;10.004;2023-06-26T12:02:05;23.10;99.90
1578;DHT22;57623;53.608;10.004;2023-06-26T12:04:36;23.00;99.90
1578;DHT22;57623;53.608;10.004;2023-06-26T12:07:06;22.80;99.90
1578;DHT22;57623;53.608;10.004;2023-06-26T12:09:38;22.70;99.90
1578;DHT22;57623;53.608;10.004;2023-06-26T12:12:08;22.80;99.90
1578;DHT22;57623;53.608;10.004;2023-06-26T12:14:37;22.80;99.90
1578;DHT22;57623;53.608;10.004;2023-06-26T12:17:09;22.80;99.90
1578;DHT22;57623;53.608;10.004;2023-06-26T12:19:39;22.90;99.90
1578;DHT22;57623;53.608;10.004;2023-06-26T12:22:08;22.90;99.90
1578;DHT22;57623;53.608;10.004;2023-06-26T12:24:37;23.00;99.90
1578;DHT22;57623;53.608;10.004;2023-06-26T12:27:08;23.20;99.90
1578;DHT22;57623;53.608;10.004;2023-06-26T12:29:39;23.40;99.90
1578;DHT22;57623;53.608;10.004;2023-06-26T12:32:09;23.50;99.90
1578;DHT22;57623;53.608;10.004;2023-06-26T12:34:39;23.60;99.90
1578;DHT22;57623;53.608;10.004;2023-06-26T12:37:09;23.80;99.90
1578;DHT22;57623;53.608;10.004;2023-06-26T12:39:48;23.90;99.90
1578;DHT22;57623;53.608;10.004;2023-06-26T12:42:17;23.80;99.90
1578;DHT22;57623;53.608;10.004;2023-06-26T12:44:46;23.80;99.90
1578;DHT22;57623;53.608;10.004;2023-06-26T12:47:15;23.90;99.90
1578;DHT22;57623;53.608;10.004;2023-06-26T12:49:50;24.10;99.90
1578;DHT22;57623;53.608;10.004;2023-06-26T12:52:19;24.10;99.90
1578;DHT22;57623;53.608;10.004;2023-06-26T12:54:52;24.20;99.90
1578;DHT22;57623;53.608;10.004;2023-06-26T12:57:20;24.20;99.90
1578;DHT22;57623;53.608;10.004;2023-06-26T12:59:48;24.10;99.90
1578;DHT22;57623;53.608;10.004;2023-06-26T13:02:16;24.00;99.90
1578;DHT22;57623;53.608;10.004;2023-06-26T13:04:46;24.10;99.90
1578;DHT22;57623;53.608;10.004;2023-06-26T13:07:14;24.10;99.90
1578;DHT22;57623;53.608;10.004;2023-06-26T13:09:43;24.20;99.90
1578;DHT22;57623;53.608;10.004;2023-06-26T13:12:12;24.40;99.90
1578;DHT22;57623;53.608;10.004;2023-06-26T13:14:40;24.50;99.90
1578;DHT22;57623;53.608;10.004;2023-06-26T13:17:08;24.60;99.90
1578;DHT22;57623;53.608;10.004;2023-06-26T13:19:36;24.60;99.90
1578;DHT22;57623;53.608;10.004;2023-06-26T13:22:06;24.70;99.90
1578;DHT22;57623;53.608;10.004;2023-06-26T13:24:34;24.90;99.90
1578;DHT22;57623;53.608;10.004;2023-06-26T13:27:02;25.00;99.90
1578;DHT22;57623;53.608;10.004;2023-06-26T13:29:31;25.10;99.90
1578;DHT22;57623;53.608;10.004;2023-06-26T13:31:59;25.20;99.90
1578;DHT22;57623;53.608;10.004;2023-06-26T13:34:27;25.30;99.90
1578;DHT22;57623;53.608;10.004;2023-06-26T13:36:56;25.20;99.90
1578;DHT22;57623;53.608;10.004;2023-06-26T13:39:27;25.10;99.90
1578;DHT22;57623;53.608;10.004;2023-06-26T13:41:55;25.10;99.90
1578;DHT22;57623;53.608;10.004;2023-06-26T13:44:24;25.10;99.90
1578;DHT22;57623;53.608;10.004;2023-06-26T13:47:07;24.90;99.90
1578;DHT22;57623;53.608;10.004;2023-06-26T13:49:36;24.90;99.90
1578;DHT22;57623;53.608;10.004;2023-06-26T13:52:05;24.80;99.90
1578;DHT22;57623;53.608;10.004;2023-06-26T13:54:36;24.80;99.90
1578;DHT22;57623;53.608;10.004;2023-06-26T13:57:06;24.80;99.90
1578;DHT22;57623;53.608;10.004;2023-06-26T13:59:37;24.70;99.90
1578;DHT22;57623;53.608;10.004;2023-06-26T14:02:06;24.60;99.90
1578;DHT22;57623;53.608;10.004;2023-06-26T14:04:35;24.60;99.90
1578;DHT22;57623;53.608;10.004;2023-06-26T14:07:04;24.60;99.90
1578;DHT22;57623;53.608;10.004;2023-06-26T14:09:33;24.60;99.90
1578;DHT22;57623;53.608;10.004;2023-06-26T14:12:02;24.90;99.90
1578;DHT22;57623;53.608;10.004;2023-06-26T14:14:30;25.20;99.90
1578;DHT22;57623;53.608;10.004;2023-06-26T14:16:58;25.40;99.90
1578;DHT22;57623;53.608;10.004;2023-06-26T14:19:26;25.40;99.90
1578;DHT22;57623;53.608;10.004;2023-06-26T14:21:54;25.20;99.90
1578;DHT22;57623;53.608;10.004;2023-06-26T14:24:22;24.90;99.90
1578;DHT22;57623;53.608;10.004;2023-06-26T14:26:50;24.80;99.90
1578;DHT22;57623;53.608;10.004;2023-06-26T14:29:20;24.60;99.90
1578;DHT22;57623;53.608;10.004;2023-06-26T14:31:48;24.50;99.90
1578;DHT22;57623;53.608;10.004;2023-06-26T14:34:18;24.70;99.90
1578;DHT22;57623;53.608;10.004;2023-06-26T14:36:46;24.80;99.90
1578;DHT22;57623;53.608;10.004;2023-06-26T14:39:14;24.90;99.90
1578;DHT22;57623;53.608;10.004;2023-06-26T14:41:42;24.90;99.90
1578;DHT22;57623;53.608;10.004;2023-06-26T14:44:11;25.00;99.90
1578;DHT22;57623;53.608;10.004;2023-06-26T14:46:41;25.10;99.90
1578;DHT22;57623;53.608;10.004;2023-06-26T14:49:09;25.20;99.90
1578;DHT22;57623;53.608;10.004;2023-06-26T14:51:37;25.20;99.90
1578;DHT22;57623;53.608;10.004;2023-06-26T14:54:06;25.00;99.90
1578;DHT22;57623;53.608;10.004;2023-06-26T14:56:35;24.90;99.90
1578;DHT22;57623;53.608;10.004;2023-06-26T14:59:03;24.90;99.90
1578;DHT22;57623;53.608;10.004;2023-06-26T15:01:31;24.70;99.90
1578;DHT22;57623;53.608;10.004;2023-06-26T15:04:00;24.70;99.90
1578;DHT22;57623;53.608;10.004;2023-06-26T15:06:28;24.60;99.90
1578;DHT22;57623;53.608;10.004;2023-06-26T15:08:56;24.50;99.90
1578;DHT22;57623;53.608;10.004;2023-06-26T15:11:25;24.40;99.90
1578;DHT22;57623;53.608;10.004;2023-06-26T15:13:53;24.30;99.90
1578;DHT22;57623;53.608;10.004;2023-06-26T15:16:21;24.20;99.90
1578;DHT22;57623;53.608;10.004;2023-06-26T15:18:49;24.10;99.90
1578;DHT22;57623;53.608;10.004;2023-06-26T15:21:18;24.20;99.90
1578;DHT22;57623;53.608;10.004;2023-06-26T15:23:47;24.30;99.90
1578;DHT22;57623;53.608;10.004;2023-06-26T15:26:15;24.40;99.90
1578;DHT22;57623;53.608;10.004;2023-06-26T15:28:43;24.50;99.90
1578;DHT22;57623;53.608;10.004;2023-06-26T15:31:11;24.50;99.90
1578;DHT22;57623;53.608;10.004;2023-06-26T15:33:39;24.50;99.90
1578;DHT22;57623;53.608;10.004;2023-06-26T15:36:07;24.50;99.90
1578;DHT22;57623;53.608;10.004;2023-06-26T15:38:36;24.40;99.90
1578;DHT22;57623;53.608;10.004;2023-06-26T15:41:04;24.30;99.90
1578;DHT22;57623;53.608;10.004;2023-06-26T15:43:33;24.20;99.90